Time;durP1;ratioP1;P1;durP2;ratioP2;P2;SDS_P1;SDS_P2;PMS_P1;PMS_P2;Temp;Humidity;BMP_temperature;BMP_pressure;BME280_temperature;BME280_humidity;BME280_pressure;Samples;Min_cycle;Max_cycle;Signal;HPM_P1;HPM_P2
2023/02/12 00:01:41;;;;;;;43.65;23.30;;;;;;;;;;5030482;28;20081;-52
2023/02/12 00:04:08;;;;;;;41.72;22.88;;;;;;;;;;5032387;28;20057;-52
2023/02/12 00:06:38;;;;;;;44.38;23.30;;;;;;;;;;5038203;28;20057;-51
2023/02/12 00:09:05;;;;;;;44.40;23.45;;;;;;;;;;5030888;28;20564;-55
2023/02/12 00:11:32;;;;;;;42.90;23.25;;;;;;;;;;5030583;28;20057;-49
2023/02/12 00:13:59;;;;;;;43.72;24.02;;;;;;;;;;5030906;28;20128;-49
2023/02/12 00:16:28;;;;;;;43.72;24.23;;;;;;;;;;5032129;28;20523;-52
2023/02/12 00:18:56;;;;;;;43.63;23.00;;;;;;;;;;5050007;28;20405;-49
2023/02/12 00:21:24;;;;;;;40.28;22.23;;;;;;;;;;5052918;28;20048;-50
2023/02/12 00:23:52;;;;;;;39.17;21.95;;;;;;;;;;5035038;28;20057;-53
2023/02/12 00:26:20;;;;;;;44.65;24.92;;;;;;;;;;5034216;28;20407;-51
2023/02/12 00:28:47;;;;;;;44.13;24.48;;;;;;;;;;5033941;28;20136;-51
2023/02/12 00:31:16;;;;;;;45.17;24.17;;;;;;;;;;5033845;28;20224;-49
2023/02/12 00:33:43;;;;;;;43.65;23.33;;;;;;;;;;5033033;28;20088;-49
2023/02/12 00:36:14;;;;;;;44.10;22.90;;;;;;;;;;5033855;28;20400;-50
2023/02/12 00:38:41;;;;;;;39.33;21.65;;;;;;;;;;5033282;28;20193;-51
2023/02/12 00:41:10;;;;;;;41.15;23.05;;;;;;;;;;5033730;28;20056;-51
2023/02/12 00:43:37;;;;;;;42.45;22.98;;;;;;;;;;5033295;28;20045;-49
2023/02/12 00:46:05;;;;;;;43.22;22.80;;;;;;;;;;5033469;28;20049;-52
2023/02/12 00:48:32;;;;;;;42.72;22.42;;;;;;;;;;5033748;28;20137;-52
2023/02/12 00:50:59;;;;;;;36.83;21.55;;;;;;;;;;5033863;28;20469;-50
2023/02/12 00:53:26;;;;;;;41.38;23.25;;;;;;;;;;5035665;28;20049;-53
2023/02/12 00:55:53;;;;;;;41.53;22.17;;;;;;;;;;5039788;28;20132;-51
2023/02/12 00:58:21;;;;;;;40.90;22.30;;;;;;;;;;5053664;28;20049;-65
2023/02/12 01:00:48;;;;;;;39.65;22.35;;;;;;;;;;5053226;28;20053;-63
2023/02/12 01:03:15;;;;;;;43.95;23.38;;;;;;;;;;5036992;28;20045;-50
2023/02/12 01:05:42;;;;;;;41.83;23.25;;;;;;;;;;5040517;28;20045;-50
2023/02/12 01:08:11;;;;;;;42.33;22.35;;;;;;;;;;5052811;28;20057;-53
2023/02/12 01:10:38;;;;;;;37.97;21.55;;;;;;;;;;5050799;28;20052;-49
2023/02/12 01:13:05;;;;;;;44.20;24.40;;;;;;;;;;5035742;28;20099;-52
2023/02/12 01:15:33;;;;;;;41.92;23.15;;;;;;;;;;5036004;28;20050;-53
2023/02/12 01:18:00;;;;;;;43.50;23.25;;;;;;;;;;5040805;28;20049;-51
2023/02/12 01:20:26;;;;;;;44.25;22.85;;;;;;;;;;5052845;28;20049;-49
2023/02/12 01:22:53;;;;;;;40.92;22.70;;;;;;;;;;5038897;28;20103;-53
2023/02/12 01:25:20;;;;;;;45.10;22.67;;;;;;;;;;5032998;28;20049;-52
2023/02/12 01:27:47;;;;;;;43.97;24.38;;;;;;;;;;5031708;28;20076;-49
2023/02/12 01:30:15;;;;;;;45.00;23.85;;;;;;;;;;5032930;28;20085;-52
2023/02/12 01:32:43;;;;;;;45.78;25.08;;;;;;;;;;5032165;28;20115;-51
2023/02/12 01:35:10;;;;;;;45.88;24.13;;;;;;;;;;5032054;28;20123;-52
2023/02/12 01:37:37;;;;;;;45.85;25.42;;;;;;;;;;5014176;28;20104;-49
2023/02/12 01:40:05;;;;;;;42.10;23.55;;;;;;;;;;5012619;28;20072;-50
2023/02/12 01:42:32;;;;;;;47.30;24.10;;;;;;;;;;5012706;28;20108;-51
2023/02/12 01:45:44;;;;;;;42.20;24.08;;;;;;;;;;5015087;28;20169;-50
2023/02/12 01:48:14;;;;;;;47.42;24.88;;;;;;;;;;5013703;28;20498;-49
2023/02/12 01:50:42;;;;;;;47.13;24.33;;;;;;;;;;5032660;28;20081;-53
2023/02/12 01:53:09;;;;;;;45.83;24.40;;;;;;;;;;5031839;28;20081;-49
2023/02/12 01:55:36;;;;;;;46.13;23.80;;;;;;;;;;5031915;28;20053;-49
2023/02/12 01:58:04;;;;;;;39.22;21.73;;;;;;;;;;5031917;28;20485;-49
2023/02/12 02:00:32;;;;;;;42.65;24.92;;;;;;;;;;5032044;28;20049;-50
2023/02/12 02:03:01;;;;;;;47.00;24.83;;;;;;;;;;5031903;28;20054;-49
2023/02/12 02:05:38;;;;;;;42.45;22.83;;;;;;;;;;5037320;28;20076;-51
2023/02/12 02:08:06;;;;;;;45.38;23.25;;;;;;;;;;5052046;28;20136;-49
2023/02/12 02:10:32;;;;;;;42.47;23.98;;;;;;;;;;5051870;28;20085;-50
2023/02/12 02:15:47;;;;;;;40.25;23.65;;;;;;;;;;5043933;28;20056;-52
2023/02/12 02:18:20;;;;;;;41.63;21.58;;;;;;;;;;5032214;28;20495;-49
2023/02/12 02:21:19;;;;;;;44.13;23.70;;;;;;;;;;5031766;28;20699;-51
2023/02/12 02:24:10;;;;;;;45.22;23.65;;;;;;;;;;5031755;28;20131;-49
2023/02/12 02:27:02;;;;;;;44.40;23.80;;;;;;;;;;5031626;28;20112;-52
2023/02/12 02:29:46;;;;;;;42.70;22.48;;;;;;;;;;5031705;28;20679;-50
2023/02/12 02:32:19;;;;;;;43.17;23.67;;;;;;;;;;5031406;28;20129;-50
2023/02/12 02:34:55;;;;;;;47.38;23.58;;;;;;;;;;5031637;28;20532;-50
2023/02/12 02:37:28;;;;;;;44.63;22.95;;;;;;;;;;5031494;28;20140;-51
2023/02/12 02:40:00;;;;;;;45.13;23.10;;;;;;;;;;5031235;28;20049;-48
2023/02/12 02:42:31;;;;;;;43.78;22.88;;;;;;;;;;5031274;28;20460;-49
2023/02/12 02:45:04;;;;;;;44.70;23.17;;;;;;;;;;5031214;28;20057;-51
2023/02/12 02:47:39;;;;;;;43.67;22.83;;;;;;;;;;5030422;28;20593;-51
2023/02/12 02:50:11;;;;;;;43.25;23.48;;;;;;;;;;5036380;28;20044;-49
2023/02/12 02:52:43;;;;;;;41.22;22.65;;;;;;;;;;5031193;28;20053;-49
2023/02/12 02:55:13;;;;;;;44.13;23.67;;;;;;;;;;5030488;28;20053;-49
2023/02/12 02:57:46;;;;;;;44.72;23.40;;;;;;;;;;5031176;28;20650;-51
2023/02/12 03:00:17;;;;;;;41.90;23.67;;;;;;;;;;5033830;28;20057;-52
2023/02/12 03:02:49;;;;;;;43.55;24.50;;;;;;;;;;5040426;28;20048;-51
2023/02/12 03:05:22;;;;;;;46.38;23.83;;;;;;;;;;5037880;28;20567;-50
2023/02/12 03:07:52;;;;;;;44.45;23.70;;;;;;;;;;5030254;28;20111;-51
2023/02/12 03:10:21;;;;;;;44.80;24.45;;;;;;;;;;5079037;22;20048;-79
2023/02/12 03:12:52;;;;;;;41.97;23.38;;;;;;;;;;5071928;28;20053;-78
2023/02/12 03:15:25;;;;;;;42.50;23.23;;;;;;;;;;5070926;28;20132;-77
2023/02/12 03:17:53;;;;;;;45.53;23.88;;;;;;;;;;5070897;28;20509;-77
2023/02/12 03:20:24;;;;;;;42.88;24.17;;;;;;;;;;5071225;28;20051;-77
2023/02/12 03:22:52;;;;;;;;;;;;;;;;;;5083623;28;20036;-77
2023/02/12 03:25:23;;;;;;;49.53;23.27;;;;;;;;;;5091381;28;19931;-77
2023/02/12 03:27:56;;;;;;;43.42;22.20;;;;;;;;;;5089023;28;20506;-77
2023/02/12 03:30:25;;;;;;;43.15;23.50;;;;;;;;;;5088605;28;20055;-78
2023/02/12 03:33:01;;;;;;;39.55;22.33;;;;;;;;;;5092382;28;20505;-77
2023/02/12 03:35:33;;;;;;;42.67;23.42;;;;;;;;;;5091886;28;20040;-77
2023/02/12 03:38:05;;;;;;;42.42;22.55;;;;;;;;;;5090032;28;20123;-77
2023/02/12 03:40:36;;;;;;;45.88;23.95;;;;;;;;;;5071007;28;20409;-77
2023/02/12 03:43:06;;;;;;;44.92;24.17;;;;;;;;;;5070329;28;20414;-76
2023/02/12 03:45:44;;;;;;;44.33;22.98;;;;;;;;;;5070866;28;20044;-77
2023/02/12 03:48:19;;;;;;;41.10;22.70;;;;;;;;;;5070674;28;20045;-77
2023/02/12 03:50:51;;;;;;;40.95;22.27;;;;;;;;;;5075154;28;20486;-76
2023/02/12 03:53:18;;;;;;;40.78;22.25;;;;;;;;;;5073520;28;20458;-77
2023/02/12 03:55:48;;;;;;;44.45;23.40;;;;;;;;;;5070555;28;20135;-76
2023/02/12 03:58:19;;;;;;;48.15;24.73;;;;;;;;;;5070474;28;20128;-76
2023/02/12 04:00:46;;;;;;;46.00;22.58;;;;;;;;;;5078345;28;20483;-75
2023/02/12 04:03:14;;;;;;;45.33;22.95;;;;;;;;;;5070511;28;20481;-77
2023/02/12 04:05:41;;;;;;;45.40;24.67;;;;;;;;;;5070702;28;20044;-76
2023/02/12 04:08:11;;;;;;;42.65;24.55;;;;;;;;;;5070729;28;20044;-76
2023/02/12 04:10:46;;;;;;;43.97;23.65;;;;;;;;;;5070714;28;20037;-77
2023/02/12 04:13:18;;;;;;;43.63;22.63;;;;;;;;;;5070050;28;20044;-77
2023/02/12 04:15:56;;;;;;;45.63;22.85;;;;;;;;;;5070168;28;20051;-77
2023/02/12 04:18:32;;;;;;;42.95;24.95;;;;;;;;;;5070515;28;20044;-76
2023/02/12 04:21:06;;;;;;;44.38;23.25;;;;;;;;;;5082976;28;20048;-77
2023/02/12 04:23:56;;;;;;;44.40;22.65;;;;;;;;;;5092136;28;20046;-77
2023/02/12 04:26:30;;;;;;;44.83;23.25;;;;;;;;;;5095818;28;20427;-77
2023/02/12 04:29:05;;;;;;;43.30;22.52;;;;;;;;;;5091979;28;20048;-78
2023/02/12 04:31:36;;;;;;;46.58;22.98;;;;;;;;;;5084512;28;20048;-77
2023/02/12 04:34:08;;;;;;;;;;;;;;;;;;5092978;28;20422;-78
2023/02/12 04:36:41;;;;;;;44.33;22.80;;;;;;;;;;5092182;28;19920;-78
2023/02/12 04:39:11;;;;;;;47.38;23.42;;;;;;;;;;5092262;28;20046;-78
2023/02/12 04:41:38;;;;;;;48.40;24.58;;;;;;;;;;5083158;28;20045;-77
2023/02/12 04:44:15;;;;;;;50.47;23.95;;;;;;;;;;5091757;28;20040;-78
2023/02/12 04:46:42;;;;;;;48.40;22.98;;;;;;;;;;5091475;28;20059;-77
2023/02/12 04:49:15;;;;;;;49.28;24.05;;;;;;;;;;5091641;28;20048;-77
2023/02/12 04:51:41;;;;;;;50.83;25.40;;;;;;;;;;5084000;28;20044;-78
2023/02/12 04:54:08;;;;;;;46.17;23.83;;;;;;;;;;5090712;28;20586;-78
2023/02/12 04:56:34;;;;;;;47.55;23.23;;;;;;;;;;5091819;28;20044;-77
2023/02/12 04:59:01;;;;;;;47.42;23.42;;;;;;;;;;5092112;28;20050;-78
2023/02/12 05:01:28;;;;;;;40.85;22.63;;;;;;;;;;5081999;28;20087;-77
2023/02/12 05:03:55;;;;;;;45.10;22.60;;;;;;;;;;5060286;28;20213;-77
2023/02/12 05:06:22;;;;;;;46.83;24.20;;;;;;;;;;5078905;28;20048;-78
2023/02/12 05:08:49;;;;;;;47.45;24.15;;;;;;;;;;5085831;28;20059;-77
2023/02/12 05:11:16;;;;;;;45.95;23.20;;;;;;;;;;5090049;28;20064;-77
2023/02/12 05:13:42;;;;;;;46.33;23.90;;;;;;;;;;5101847;28;20048;-77
2023/02/12 05:16:09;;;;;;;47.45;24.58;;;;;;;;;;5101429;28;20048;-77
2023/02/12 05:18:36;;;;;;;52.17;25.00;;;;;;;;;;5099485;28;20075;-76
2023/02/12 05:21:04;;;;;;;45.75;24.10;;;;;;;;;;5094004;28;20123;-77
2023/02/12 05:23:34;;;;;;;49.72;24.50;;;;;;;;;;5084595;28;20131;-77
2023/02/12 05:26:02;;;;;;;52.47;25.88;;;;;;;;;;5092583;28;20048;-77
2023/02/12 05:28:30;;;;;;;47.67;24.10;;;;;;;;;;5092883;28;20569;-76
2023/02/12 05:31:00;;;;;;;49.80;25.83;;;;;;;;;;5092760;28;20043;-76
2023/02/12 05:33:26;;;;;;;51.27;23.80;;;;;;;;;;5091453;28;20051;-77
2023/02/12 05:35:54;;;;;;;46.83;24.02;;;;;;;;;;5092337;28;20045;-76
2023/02/12 05:38:21;;;;;;;52.30;26.25;;;;;;;;;;5092472;28;20509;-77
2023/02/12 05:40:49;;;;;;;49.92;24.38;;;;;;;;;;5084099;28;20043;-77
2023/02/12 05:43:15;;;;;;;46.30;23.88;;;;;;;;;;5072353;28;20050;-77
2023/02/12 05:45:43;;;;;;;52.53;26.80;;;;;;;;;;5072451;28;20044;-77
2023/02/12 05:48:10;;;;;;;49.50;25.13;;;;;;;;;;5072760;28;20549;-77
2023/02/12 05:50:36;;;;;;;55.35;25.73;;;;;;;;;;5072418;28;20123;-77
2023/02/12 05:53:03;;;;;;;49.42;25.25;;;;;;;;;;5076165;28;20044;-77
2023/02/12 05:55:30;;;;;;;56.08;27.40;;;;;;;;;;5093463;28;20127;-77
2023/02/12 05:57:58;;;;;;;54.40;26.33;;;;;;;;;;5093780;28;20063;-77
2023/02/12 06:00:24;;;;;;;52.47;25.77;;;;;;;;;;5094006;28;20060;-77
2023/02/12 06:02:51;;;;;;;47.97;25.50;;;;;;;;;;5093995;28;20063;-77
2023/02/12 06:05:18;;;;;;;58.58;28.63;;;;;;;;;;5082679;28;20036;-76
2023/02/12 06:07:44;;;;;;;55.95;26.60;;;;;;;;;;5073770;28;20051;-77
2023/02/12 06:10:11;;;;;;;55.83;26.13;;;;;;;;;;5072450;28;20507;-77
2023/02/12 06:12:38;;;;;;;58.67;27.80;;;;;;;;;;5072013;28;20147;-77
2023/02/12 06:15:06;;;;;;;56.28;28.10;;;;;;;;;;5071275;28;20594;-77
2023/02/12 06:17:34;;;;;;;61.83;28.52;;;;;;;;;;5074035;28;20048;-76
2023/02/12 06:20:00;;;;;;;53.58;26.25;;;;;;;;;;5074934;28;20044;-77
2023/02/12 06:22:27;;;;;;;50.83;26.42;;;;;;;;;;5072813;28;20139;-77
2023/02/12 06:24:54;;;;;;;60.15;29.98;;;;;;;;;;5080946;28;20141;-78
2023/02/12 06:27:25;;;;;;;63.78;27.60;;;;;;;;;;5072211;28;20538;-77
2023/02/12 06:29:52;;;;;;;60.92;28.90;;;;;;;;;;5072433;28;20040;-78
2023/02/12 06:32:20;;;;;;;59.85;28.20;;;;;;;;;;5071988;28;20047;-78
2023/02/12 06:34:46;;;;;;;62.80;28.58;;;;;;;;;;5076473;28;20127;-78
2023/02/12 06:37:13;;;;;;;56.78;28.23;;;;;;;;;;5092696;28;20487;-77
2023/02/12 06:39:39;;;;;;;59.60;28.25;;;;;;;;;;5092975;28;20040;-77
2023/02/12 06:42:06;;;;;;;61.85;28.77;;;;;;;;;;5091720;28;20051;-78
2023/02/12 06:44:32;;;;;;;63.13;28.90;;;;;;;;;;5091776;28;20044;-77
2023/02/12 06:46:59;;;;;;;59.00;30.20;;;;;;;;;;5089448;28;20048;-76
2023/02/12 06:49:27;;;;;;;60.33;30.00;;;;;;;;;;5091482;28;20051;-77
2023/02/12 06:51:54;;;;;;;64.25;30.55;;;;;;;;;;5091060;28;20046;-77
2023/02/12 06:54:20;;;;;;;60.95;28.58;;;;;;;;;;5091198;28;20474;-77
2023/02/12 06:56:47;;;;;;;63.88;29.38;;;;;;;;;;5090929;28;20135;-77
2023/02/12 06:59:15;;;;;;;57.70;28.48;;;;;;;;;;5091795;28;20076;-77
2023/02/12 07:01:42;;;;;;;60.50;28.55;;;;;;;;;;5092173;28;20395;-77
2023/02/12 07:04:10;;;;;;;73.75;33.88;;;;;;;;;;5080305;28;20044;-78
2023/02/12 07:06:38;;;;;;;69.55;31.00;;;;;;;;;;5072764;28;20076;-78
2023/02/12 07:09:05;;;;;;;68.85;32.28;;;;;;;;;;5071917;28;20055;-77
2023/02/12 07:11:33;;;;;;;81.32;34.05;;;;;;;;;;5072424;28;20045;-77
2023/02/12 07:14:00;;;;;;;81.15;34.47;;;;;;;;;;5071983;28;20055;-77
2023/02/12 07:16:27;;;;;;;74.57;32.40;;;;;;;;;;5072450;28;20051;-77
2023/02/12 07:18:54;;;;;;;73.78;33.10;;;;;;;;;;5071365;28;20044;-78
2023/02/12 07:21:21;;;;;;;74.65;33.15;;;;;;;;;;5071170;28;20552;-77
2023/02/12 07:23:51;;;;;;;77.72;33.08;;;;;;;;;;5091359;28;20088;-77
2023/02/12 07:26:19;;;;;;;73.13;31.98;;;;;;;;;;5089938;28;20131;-76
2023/02/12 07:28:46;;;;;;;72.55;31.65;;;;;;;;;;5089886;28;20509;-77
2023/02/12 07:31:15;;;;;;;76.85;32.55;;;;;;;;;;5091765;28;20388;-77
2023/02/12 07:33:43;;;;;;;73.03;31.17;;;;;;;;;;5091601;28;20051;-77
2023/02/12 07:36:12;;;;;;;68.05;29.50;;;;;;;;;;5091846;28;20097;-77
2023/02/12 07:38:39;;;;;;;69.82;29.85;;;;;;;;;;5077452;28;20434;-78
2023/02/12 07:41:09;;;;;;;76.32;33.78;;;;;;;;;;5072430;28;20143;-77
2023/02/12 07:43:36;;;;;;;78.45;33.60;;;;;;;;;;5071811;28;20574;-78
2023/02/12 07:46:10;;;;;;;79.25;32.42;;;;;;;;;;5072047;28;20049;-77
2023/02/12 07:48:37;;;;;;;72.75;30.90;;;;;;;;;;5079697;28;20044;-78
2023/02/12 07:51:06;;;;;;;68.97;30.20;;;;;;;;;;5072469;28;20135;-78
2023/02/12 07:53:33;;;;;;;73.68;32.53;;;;;;;;;;5090159;28;20062;-78
2023/02/12 07:56:10;;;;;;;65.03;30.08;;;;;;;;;;5092562;28;20066;-77
2023/02/12 07:58:37;;;;;;;72.45;31.90;;;;;;;;;;5085650;28;20051;-77
2023/02/12 08:01:15;;;;;;;70.47;30.98;;;;;;;;;;5084285;28;20045;-78
2023/02/12 08:03:43;;;;;;;77.75;31.92;;;;;;;;;;5071313;28;20131;-77
2023/02/12 08:06:11;;;;;;;63.30;28.08;;;;;;;;;;5071048;28;20070;-77
2023/02/12 08:08:38;;;;;;;62.63;30.00;;;;;;;;;;5073860;28;20075;-78
2023/02/12 08:11:08;;;;;;;68.25;28.48;;;;;;;;;;5087913;28;20040;-78
2023/02/12 08:13:35;;;;;;;63.60;27.75;;;;;;;;;;5092495;28;20131;-78
2023/02/12 08:16:03;;;;;;;61.67;25.13;;;;;;;;;;5091944;28;20048;-78
2023/02/12 08:18:31;;;;;;;51.88;24.25;;;;;;;;;;5076368;28;20059;-78
2023/02/12 08:21:02;;;;;;;60.25;26.77;;;;;;;;;;5073227;28;20040;-78
2023/02/12 08:23:29;;;;;;;62.72;27.77;;;;;;;;;;5090112;28;20078;-78
2023/02/12 08:26:05;;;;;;;63.05;27.05;;;;;;;;;;5087750;28;20112;-78
2023/02/12 08:28:33;;;;;;;50.95;23.95;;;;;;;;;;5068456;28;20051;-77
2023/02/12 08:31:00;;;;;;;57.28;26.75;;;;;;;;;;5079119;28;20064;-78
2023/02/12 08:33:27;;;;;;;55.42;25.50;;;;;;;;;;5074321;28;20136;-78
2023/02/12 08:36:01;;;;;;;58.03;24.77;;;;;;;;;;5075099;28;20044;-78
2023/02/12 08:38:28;;;;;;;56.25;26.02;;;;;;;;;;5076667;28;20567;-77
2023/02/12 08:40:55;;;;;;;60.10;25.10;;;;;;;;;;5081124;28;20044;-77
2023/02/12 08:43:22;;;;;;;62.67;25.45;;;;;;;;;;5097910;28;20470;-78
2023/02/12 08:45:49;;;;;;;58.88;25.63;;;;;;;;;;5100808;28;20239;-79
2023/02/12 08:48:16;;;;;;;55.92;23.25;;;;;;;;;;5100146;28;20108;-77
2023/02/12 08:50:43;;;;;;;51.38;23.63;;;;;;;;;;5094164;28;20045;-77
2023/02/12 08:53:10;;;;;;;51.20;24.80;;;;;;;;;;5087451;28;20123;-78
2023/02/12 08:55:36;;;;;;;53.53;24.15;;;;;;;;;;5099587;28;20094;-77
2023/02/12 08:58:03;;;;;;;55.90;25.23;;;;;;;;;;5096956;28;20044;-78
2023/02/12 09:00:30;;;;;;;50.45;24.13;;;;;;;;;;5095793;28;20052;-77
2023/02/12 09:02:58;;;;;;;51.40;22.58;;;;;;;;;;5096947;28;20565;-78
2023/02/12 09:05:24;;;;;;;50.20;22.60;;;;;;;;;;5092538;28;20393;-78
2023/02/12 09:07:53;;;;;;;48.85;22.00;;;;;;;;;;5085911;28;20529;-78
2023/02/12 09:10:20;;;;;;;49.17;22.77;;;;;;;;;;5087836;22;20032;-75
2023/02/12 09:12:47;;;;;;;48.58;22.98;;;;;;;;;;5064472;28;20097;-75
2023/02/12 09:15:14;;;;;;;49.78;21.52;;;;;;;;;;5061918;28;20079;-75
2023/02/12 09:17:42;;;;;;;50.80;23.00;;;;;;;;;;5066668;28;20123;-77
2023/02/12 09:20:11;;;;;;;48.13;21.98;;;;;;;;;;5067015;28;20056;-76
2023/02/12 09:22:38;;;;;;;48.42;21.25;;;;;;;;;;5070711;28;20147;-76
2023/02/12 09:25:05;;;;;;;46.97;20.55;;;;;;;;;;5076786;28;20052;-81
2023/02/12 09:27:32;;;;;;;47.65;22.17;;;;;;;;;;5069743;28;20128;-76
2023/02/12 09:29:58;;;;;;;56.63;25.13;;;;;;;;;;5074767;28;20114;-75
2023/02/12 09:32:25;;;;;;;55.50;26.60;;;;;;;;;;5076501;28;20459;-75
2023/02/12 09:34:52;;;;;;;63.58;26.95;;;;;;;;;;5078315;28;20051;-76
2023/02/12 09:37:20;;;;;;;56.70;25.40;;;;;;;;;;5076863;28;20041;-75
2023/02/12 09:39:46;;;;;;;55.30;25.90;;;;;;;;;;5075275;28;20054;-74
2023/02/12 09:42:27;;;;;;;59.55;26.60;;;;;;;;;;5075102;28;20131;-76
2023/02/12 09:45:01;;;;;;;56.13;25.13;;;;;;;;;;5075301;28;20052;-75
2023/02/12 09:47:35;;;;;;;53.65;24.15;;;;;;;;;;5074826;28;20075;-75
2023/02/12 09:50:12;;;;;;;44.30;20.38;;;;;;;;;;5072735;28;20043;-76
2023/02/12 09:52:41;;;;;;;53.78;24.15;;;;;;;;;;5072766;28;20110;-75
2023/02/12 09:55:14;;;;;;;51.20;23.65;;;;;;;;;;5070737;28;20441;-76
2023/02/12 09:57:42;;;;;;;46.25;22.15;;;;;;;;;;5060874;28;20068;-76
2023/02/12 10:00:11;;;;;;;37.78;20.65;;;;;;;;;;5063223;28;20040;-75
2023/02/12 10:02:40;;;;;;;22.10;9.23;;;;;;;;;;5071878;28;20045;-74
2023/02/12 10:05:15;;;;;;;8.13;4.00;;;;;;;;;;5069251;28;20075;-76
2023/02/12 10:08:00;;;;;;;10.32;4.50;;;;;;;;;;5052312;28;20049;-75
2023/02/12 10:10:50;;;;;;;5.53;2.00;;;;;;;;;;5051479;28;20135;-75
2023/02/12 10:13:27;;;;;;;9.52;3.15;;;;;;;;;;5051402;28;20045;-75
2023/02/12 10:16:02;;;;;;;9.50;3.67;;;;;;;;;;5054828;28;20055;-75
2023/02/12 10:19:05;;;;;;;7.82;3.17;;;;;;;;;;5070128;28;20054;-81
2023/02/12 10:21:40;;;;;;;6.10;2.88;;;;;;;;;;5045497;28;20055;-79
2023/02/12 10:24:40;;;;;;;12.38;4.68;;;;;;;;;;5058690;28;20044;-75
2023/02/12 10:27:13;;;;;;;15.40;6.80;;;;;;;;;;5079681;28;20058;-78
2023/02/12 10:29:42;;;;;;;15.70;7.50;;;;;;;;;;5081994;28;20044;-77
2023/02/12 10:32:17;;;;;;;17.42;7.95;;;;;;;;;;5081759;28;20093;-78
2023/02/12 10:34:44;;;;;;;20.23;9.75;;;;;;;;;;5074452;28;20079;-74
2023/02/12 10:37:28;;;;;;;21.88;9.48;;;;;;;;;;5070878;28;20048;-76
2023/02/12 10:40:01;;;;;;;20.95;8.23;;;;;;;;;;5071087;28;20072;-76
2023/02/12 10:42:38;;;;;;;16.25;7.70;;;;;;;;;;5070080;28;20048;-75
2023/02/12 10:45:06;;;;;;;19.05;8.32;;;;;;;;;;5066679;28;20489;-75
2023/02/12 10:47:32;;;;;;;11.40;4.93;;;;;;;;;;5070223;28;20041;-75
2023/02/12 10:50:01;;;;;;;9.80;3.95;;;;;;;;;;5071058;28;20040;-75
2023/02/12 10:52:38;;;;;;;7.53;3.25;;;;;;;;;;5070765;28;20416;-76
2023/02/12 10:55:23;;;;;;;6.25;2.22;;;;;;;;;;5070561;28;20051;-76
2023/02/12 10:57:51;;;;;;;4.47;1.75;;;;;;;;;;5066876;28;20045;-76
2023/02/12 11:00:25;;;;;;;4.18;1.60;;;;;;;;;;5058440;28;20128;-76
2023/02/12 11:03:05;;;;;;;6.97;1.50;;;;;;;;;;5066750;28;20499;-75
2023/02/12 11:05:34;;;;;;;9.33;2.40;;;;;;;;;;5068477;28;20087;-75
2023/02/12 11:08:01;;;;;;;4.95;2.42;;;;;;;;;;5070150;28;20128;-75
2023/02/12 11:10:31;;;;;;;7.85;2.50;;;;;;;;;;5058808;28;20040;-76
2023/02/12 11:12:58;;;;;;;5.63;1.85;;;;;;;;;;5070412;28;20056;-75
2023/02/12 11:15:26;;;;;;;4.32;1.92;;;;;;;;;;5070688;28;20049;-75
2023/02/12 11:17:58;;;;;;;5.22;1.90;;;;;;;;;;5069524;28;20045;-76
2023/02/12 11:20:28;;;;;;;4.82;1.77;;;;;;;;;;5070364;28;20041;-75
2023/02/12 11:22:58;;;;;;;7.00;1.88;;;;;;;;;;5070277;28;20055;-75
2023/02/12 11:25:26;;;;;;;;;;;;;;;;;;5056038;28;20044;-76
2023/02/12 11:28:03;;;;;;;8.85;2.30;;;;;;;;;;5059315;28;19943;-75
2023/02/12 11:30:30;;;;;;;5.90;2.45;;;;;;;;;;5061976;28;20073;-75
2023/02/12 11:33:16;;;;;;;8.43;3.00;;;;;;;;;;5059119;28;20049;-75
2023/02/12 11:35:50;;;;;;;5.82;1.80;;;;;;;;;;5058682;28;20079;-75
2023/02/12 11:38:23;;;;;;;9.50;2.90;;;;;;;;;;5050025;28;20051;-75
2023/02/12 11:40:57;;;;;;;6.22;2.30;;;;;;;;;;5061822;28;20037;-77
2023/02/12 11:43:28;;;;;;;4.25;1.63;;;;;;;;;;5050088;28;20095;-76
2023/02/12 11:45:56;;;;;;;3.95;1.50;;;;;;;;;;5064170;28;20127;-74
2023/02/12 11:48:26;;;;;;;7.05;1.88;;;;;;;;;;5069396;28;20052;-74
2023/02/12 11:50:55;;;;;;;6.18;2.65;;;;;;;;;;5049900;28;20044;-74
2023/02/12 11:53:25;;;;;;;9.25;2.50;;;;;;;;;;5069264;28;20052;-76
2023/02/12 11:55:55;;;;;;;4.28;2.15;;;;;;;;;;5066940;28;20411;-75
2023/02/12 11:58:23;;;;;;;4.90;2.10;;;;;;;;;;5062365;28;20052;-75
2023/02/12 12:00:57;;;;;;;5.68;2.30;;;;;;;;;;5065806;28;20388;-75
2023/02/12 12:03:28;;;;;;;4.25;2.03;;;;;;;;;;5066943;28;20568;-74
2023/02/12 12:06:06;;;;;;;7.35;3.25;;;;;;;;;;5067689;28;20044;-75
2023/02/12 12:08:40;;;;;;;6.88;2.85;;;;;;;;;;5066868;28;20125;-74
2023/02/12 12:11:13;;;;;;;6.13;2.38;;;;;;;;;;5064979;28;20526;-74
2023/02/12 12:13:47;;;;;;;5.82;2.80;;;;;;;;;;5072737;28;20048;-75
2023/02/12 12:22:00;;;;;;;7.85;3.55;;;;;;;;;;5079371;28;20514;-74
2023/02/12 12:24:36;;;;;;;10.70;3.75;;;;;;;;;;5069069;28;20723;-73
2023/02/12 12:27:23;;;;;;;10.52;5.03;;;;;;;;;;5063081;28;20047;-74
2023/02/12 12:29:59;;;;;;;11.82;5.10;;;;;;;;;;5073355;28;20641;-74
2023/02/12 12:32:30;;;;;;;10.80;4.85;;;;;;;;;;5072999;28;20049;-74
2023/02/12 12:34:57;;;;;;;12.07;5.40;;;;;;;;;;5073820;28;20136;-74
2023/02/12 12:37:35;;;;;;;12.25;5.90;;;;;;;;;;5073459;28;20041;-75
2023/02/12 12:40:22;;;;;;;16.63;6.30;;;;;;;;;;5058306;28;20049;-74
2023/02/12 12:43:08;;;;;;;10.73;5.28;;;;;;;;;;5056054;28;20068;-74
2023/02/12 12:45:59;;;;;;;8.32;4.60;;;;;;;;;;5043615;28;20056;-74
2023/02/12 12:48:49;;;;;;;14.95;7.03;;;;;;;;;;5067388;28;20491;-73
2023/02/12 12:51:30;;;;;;;13.00;6.03;;;;;;;;;;5058289;28;20504;-74
2023/02/12 12:54:09;;;;;;;15.32;6.63;;;;;;;;;;5072173;28;20338;-74
2023/02/12 12:56:47;;;;;;;14.93;6.65;;;;;;;;;;5062290;28;20686;-73
2023/02/12 12:59:48;;;;;;;14.07;6.88;;;;;;;;;;5061495;28;20553;-72
2023/02/12 13:02:58;;;;;;;15.48;6.97;;;;;;;;;;5059569;28;20051;-72
2023/02/12 13:05:48;;;;;;;16.80;7.18;;;;;;;;;;5050375;28;20437;-71
2023/02/12 13:08:31;;;;;;;12.27;5.65;;;;;;;;;;5072392;28;20051;-72
2023/02/12 13:11:06;;;;;;;10.25;4.95;;;;;;;;;;5064167;28;20052;-71
2023/02/12 13:13:36;;;;;;;15.73;5.47;;;;;;;;;;5053019;28;20508;-71
2023/02/12 13:16:11;;;;;;;12.10;5.93;;;;;;;;;;5063247;28;20130;-73
2023/02/12 13:18:48;;;;;;;13.23;6.22;;;;;;;;;;5062300;28;20037;-73
2023/02/12 13:21:32;;;;;;;15.73;5.90;;;;;;;;;;5069941;28;20045;-71
2023/02/12 13:24:03;;;;;;;11.40;5.22;;;;;;;;;;5051152;28;20140;-74
2023/02/12 13:26:37;;;;;;;12.15;5.80;;;;;;;;;;5062081;28;20041;-74
2023/02/12 13:29:08;;;;;;;11.00;5.70;;;;;;;;;;5066866;28;20040;-74
2023/02/12 13:31:40;;;;;;;12.60;5.40;;;;;;;;;;5059226;28;20040;-74
2023/02/12 13:34:13;;;;;;;12.15;6.13;;;;;;;;;;5071597;28;20041;-73
2023/02/12 13:36:45;;;;;;;12.32;5.78;;;;;;;;;;5051512;28;20055;-75
2023/02/12 13:39:22;;;;;;;9.30;4.85;;;;;;;;;;5052375;28;20041;-74
2023/02/12 13:41:58;;;;;;;13.38;5.70;;;;;;;;;;5052069;28;20052;-76
2023/02/12 13:44:31;;;;;;;11.23;5.57;;;;;;;;;;5052468;28;20132;-76
2023/02/12 13:47:07;;;;;;;12.02;5.53;;;;;;;;;;5052640;28;20049;-74
2023/02/12 13:49:44;;;;;;;11.38;5.70;;;;;;;;;;5052844;28;20045;-74
2023/02/12 13:52:22;;;;;;;10.73;5.30;;;;;;;;;;5051886;28;20068;-74
2023/02/12 13:55:01;;;;;;;11.05;5.32;;;;;;;;;;5051992;28;20523;-74
2023/02/12 13:57:27;;;;;;;14.43;7.03;;;;;;;;;;5051708;28;20415;-74
2023/02/12 13:59:57;;;;;;;14.77;7.30;;;;;;;;;;5052100;28;20052;-73
2023/02/12 14:02:43;;;;;;;15.68;6.60;;;;;;;;;;5051554;28;20583;-74
2023/02/12 14:05:21;;;;;;;13.98;6.35;;;;;;;;;;5056208;28;20131;-75
2023/02/12 14:07:51;;;;;;;16.05;7.97;;;;;;;;;;5073232;28;20045;-74
2023/02/12 14:10:25;;;;;;;14.65;6.55;;;;;;;;;;5072980;28;20558;-74
2023/02/12 14:12:53;;;;;;;15.10;7.28;;;;;;;;;;5073549;28;20054;-74
2023/02/12 14:15:35;;;;;;;21.98;11.07;;;;;;;;;;5074514;28;20044;-74
2023/02/12 14:18:21;;;;;;;22.23;9.82;;;;;;;;;;5074199;28;20068;-75
2023/02/12 14:20:48;;;;;;;25.17;11.73;;;;;;;;;;5069192;28;20041;-74
2023/02/12 14:23:26;;;;;;;21.30;10.73;;;;;;;;;;5071282;28;20045;-74
2023/02/12 14:26:02;;;;;;;21.65;9.75;;;;;;;;;;5071677;28;20061;-75
2023/02/12 14:28:51;;;;;;;20.70;9.25;;;;;;;;;;5074286;28;20135;-75
2023/02/12 14:31:32;;;;;;;20.67;8.32;;;;;;;;;;5072373;28;20048;-75
2023/02/12 14:34:49;;;;;;;19.33;8.70;;;;;;;;;;5071478;28;20044;-75
2023/02/12 14:37:34;;;;;;;16.50;7.28;;;;;;;;;;5045150;28;20083;-75
2023/02/12 14:40:39;;;;;;;13.48;6.35;;;;;;;;;;5071139;28;20503;-75
2023/02/12 14:43:26;;;;;;;15.43;7.45;;;;;;;;;;5052339;28;20054;-74
2023/02/12 14:45:53;;;;;;;15.93;6.60;;;;;;;;;;5071231;28;20048;-75
2023/02/12 14:48:45;;;;;;;15.48;7.75;;;;;;;;;;5070999;28;20075;-72
2023/02/12 14:51:16;;;;;;;17.35;7.70;;;;;;;;;;5070875;28;20044;-73
2023/02/12 14:53:46;;;;;;;15.70;7.28;;;;;;;;;;5070998;28;20055;-74
2023/02/12 14:56:19;;;;;;;16.20;7.03;;;;;;;;;;5071329;28;20159;-75
2023/02/12 14:58:46;;;;;;;13.02;6.18;;;;;;;;;;5071333;28;20052;-73